Skip Navigation Links Skip Navigation Links

Current Weather

Auckland, Sydney, Australia

For information only: do not use for flight planning or navigation.
Latest weather
Observation time Tuesday, October 19, 2021 7:30 PM AEDT
Local time Tuesday, October 19, 2021 7:57 PM AEDT
Flight conditions Visual Meteorological Conditions
Winds
Wind direction South (180°)
Wind speed 26 mph
Visibility 6.2 mi.
Present weather light drizzle
Sky condition
Ceiling 7,500 ft. broken clouds
Cloud layer few clouds 1,500 ft.
Cloud layer scattered clouds 2,500 ft.
Cloud layer broken clouds 7,500 ft.
Temperature 61°F
Dewpoint 52°F
Altimeter 30.03 in.Hg
Derived measurements
Relative humidity 72%
Density altitude 186 ft.
METAR YSSY 190830Z 18023KT 9999 -DZ FEW015 SCT025 BKN075 16/11 Q1017

Settings

Location code

InnerDrive.Weather 4.0.6770.0 Release CLR 4.0.30319.42000
Copyright ©2018 Inner Drive Technology. All rights reserved. Portions Copyright ©1986-2018 David Braverman.

Find weather

Site navigation


Skip Navigation Links

Place info

Page info

PayPal - The safer, easier way to pay online!

Return home.

Copyright ©2021 Inner Drive Technology. Purveyors of fine, hand-crafted computer software. Page printed 2021-10-19T08:57:06 UTC.